sensor_id;sensor_type;location;lat;lon;timestamp;pressure;altitude;pressure_sealevel;temperature;humidity
17649;BME280;8943;51.110;-4.158;2022-09-16T00:01:27;101413.38;;;19.01;44.85
17649;BME280;8943;51.110;-4.158;2022-09-16T00:03:55;101412.25;;;19.04;44.76
17649;BME280;8943;51.110;-4.158;2022-09-16T00:06:26;101412.38;;;19.02;45.30
17649;BME280;8943;51.110;-4.158;2022-09-16T00:08:58;101409.22;;;19.07;45.26
17649;BME280;8943;51.110;-4.158;2022-09-16T00:11:30;101421.97;;;19.15;45.37
17649;BME280;8943;51.110;-4.158;2022-09-16T00:14:00;101405.78;;;19.15;45.72
17649;BME280;8943;51.110;-4.158;2022-09-16T00:16:28;101406.00;;;19.21;45.37
17649;BME280;8943;51.110;-4.158;2022-09-16T00:18:59;101404.59;;;19.17;45.66
17649;BME280;8943;51.110;-4.158;2022-09-16T00:21:29;101412.97;;;19.24;45.52
17649;BME280;8943;51.110;-4.158;2022-09-16T00:23:59;101410.09;;;19.25;45.42
17649;BME280;8943;51.110;-4.158;2022-09-16T00:26:27;101406.56;;;19.25;45.41
17649;BME280;8943;51.110;-4.158;2022-09-16T00:28:55;101416.63;;;19.33;45.38
17649;BME280;8943;51.110;-4.158;2022-09-16T00:31:23;101410.66;;;19.29;45.20
17649;BME280;8943;51.110;-4.158;2022-09-16T00:33:52;101414.91;;;19.32;45.24
17649;BME280;8943;51.110;-4.158;2022-09-16T00:36:21;101413.28;;;19.39;45.05
17649;BME280;8943;51.110;-4.158;2022-09-16T00:38:50;101405.75;;;19.42;44.90
17649;BME280;8943;51.110;-4.158;2022-09-16T00:41:23;101411.81;;;19.44;44.88
17649;BME280;8943;51.110;-4.158;2022-09-16T00:43:54;101414.38;;;19.46;44.94
17649;BME280;8943;51.110;-4.158;2022-09-16T00:46:28;101424.34;;;19.45;45.04
17649;BME280;8943;51.110;-4.158;2022-09-16T00:49:02;101418.63;;;19.48;45.09
17649;BME280;8943;51.110;-4.158;2022-09-16T00:51:31;101414.06;;;19.49;44.94
17649;BME280;8943;51.110;-4.158;2022-09-16T00:54:02;101415.47;;;19.53;44.92
17649;BME280;8943;51.110;-4.158;2022-09-16T00:56:36;101418.84;;;19.55;45.16
17649;BME280;8943;51.110;-4.158;2022-09-16T00:59:07;101427.38;;;19.60;45.04
17649;BME280;8943;51.110;-4.158;2022-09-16T01:01:37;101413.16;;;19.58;45.36
17649;BME280;8943;51.110;-4.158;2022-09-16T01:04:09;101406.84;;;19.67;45.02
17649;BME280;8943;51.110;-4.158;2022-09-16T01:06:39;101415.25;;;19.64;44.99
17649;BME280;8943;51.110;-4.158;2022-09-16T01:09:07;101409.84;;;19.64;45.01
17649;BME280;8943;51.110;-4.158;2022-09-16T01:11:37;101415.66;;;19.69;45.10
17649;BME280;8943;51.110;-4.158;2022-09-16T01:14:05;101411.41;;;19.67;45.28
17649;BME280;8943;51.110;-4.158;2022-09-16T01:16:56;101427.09;;;19.63;45.44
17649;BME280;8943;51.110;-4.158;2022-09-16T01:19:40;101422.22;;;19.67;45.49
17649;BME280;8943;51.110;-4.158;2022-09-16T01:22:24;101422.69;;;19.62;45.64
17649;BME280;8943;51.110;-4.158;2022-09-16T01:24:59;101411.53;;;19.65;45.67
17649;BME280;8943;51.110;-4.158;2022-09-16T01:27:44;101419.81;;;19.64;45.89
17649;BME280;8943;51.110;-4.158;2022-09-16T01:30:38;101421.34;;;19.66;45.76
17649;BME280;8943;51.110;-4.158;2022-09-16T01:33:16;101423.66;;;19.61;45.93
17649;BME280;8943;51.110;-4.158;2022-09-16T01:35:57;101423.66;;;19.61;46.12
17649;BME280;8943;51.110;-4.158;2022-09-16T01:38:48;101420.13;;;19.61;46.11
17649;BME280;8943;51.110;-4.158;2022-09-16T01:41:25;101410.88;;;19.63;45.88
17649;BME280;8943;51.110;-4.158;2022-09-16T01:44:01;101424.22;;;19.65;45.72
17649;BME280;8943;51.110;-4.158;2022-09-16T01:46:40;101416.94;;;19.65;45.85
17649;BME280;8943;51.110;-4.158;2022-09-16T01:49:17;101414.78;;;19.69;45.96
17649;BME280;8943;51.110;-4.158;2022-09-16T01:51:51;101412.56;;;19.64;46.04
17649;BME280;8943;51.110;-4.158;2022-09-16T01:54:27;101415.66;;;19.69;45.92
17649;BME280;8943;51.110;-4.158;2022-09-16T01:57:00;101411.41;;;19.67;46.01
17649;BME280;8943;51.110;-4.158;2022-09-16T01:59:36;101414.78;;;19.69;46.07
17649;BME280;8943;51.110;-4.158;2022-09-16T02:02:12;101421.22;;;19.68;45.93
17649;BME280;8943;51.110;-4.158;2022-09-16T02:04:44;101411.41;;;19.67;45.96
17649;BME280;8943;51.110;-4.158;2022-09-16T02:07:16;101410.22;;;19.69;45.78
17649;BME280;8943;51.110;-4.158;2022-09-16T02:09:50;101411.63;;;19.73;45.89
17649;BME280;8943;51.110;-4.158;2022-09-16T02:12:23;101420.50;;;19.66;45.98
17649;BME280;8943;51.110;-4.158;2022-09-16T02:15:00;101407.16;;;19.64;45.90
17649;BME280;8943;51.110;-4.158;2022-09-16T02:17:32;101421.06;;;19.69;45.71
17649;BME280;8943;51.110;-4.158;2022-09-16T02:20:05;101420.50;;;19.66;45.67
17649;BME280;8943;51.110;-4.158;2022-09-16T02:22:36;101407.59;;;19.60;45.68
17649;BME280;8943;51.110;-4.158;2022-09-16T02:25:07;101408.28;;;19.62;45.93
17649;BME280;8943;51.110;-4.158;2022-09-16T02:27:38;101409.72;;;19.56;45.77
17649;BME280;8943;51.110;-4.158;2022-09-16T02:30:08;101412.38;;;19.48;45.69
17649;BME280;8943;51.110;-4.158;2022-09-16T02:32:42;101416.38;;;19.44;45.86
17649;BME280;8943;51.110;-4.158;2022-09-16T02:35:16;101412.59;;;19.37;45.96
17649;BME280;8943;51.110;-4.158;2022-09-16T02:37:49;101419.00;;;19.36;45.79
17649;BME280;8943;51.110;-4.158;2022-09-16T02:40:22;101410.66;;;19.29;45.67
17649;BME280;8943;51.110;-4.158;2022-09-16T02:42:52;101407.13;;;19.28;45.82
17649;BME280;8943;51.110;-4.158;2022-09-16T02:45:22;101410.66;;;19.29;45.57
17649;BME280;8943;51.110;-4.158;2022-09-16T02:48:00;101410.50;;;19.30;45.64
17649;BME280;8943;51.110;-4.158;2022-09-16T02:50:36;101405.94;;;19.31;45.59
17649;BME280;8943;51.110;-4.158;2022-09-16T02:53:14;101406.94;;;19.30;45.60
17649;BME280;8943;51.110;-4.158;2022-09-16T02:55:52;101406.66;;;19.33;45.52
17649;BME280;8943;51.110;-4.158;2022-09-16T02:58:22;101410.34;;;19.32;45.36
17649;BME280;8943;51.110;-4.158;2022-09-16T03:00:53;101401.38;;;19.32;45.50
17649;BME280;8943;51.110;-4.158;2022-09-16T03:03:23;101399.97;;;19.27;45.43
17649;BME280;8943;51.110;-4.158;2022-09-16T03:06:12;101403.69;;;19.26;45.41
17649;BME280;8943;51.110;-4.158;2022-09-16T03:08:42;101397.28;;;19.27;45.46
17649;BME280;8943;51.110;-4.158;2022-09-16T03:11:32;101391.03;;;19.27;45.46
17649;BME280;8943;51.110;-4.158;2022-09-16T03:14:13;101395.13;;;19.31;45.65
17649;BME280;8943;51.110;-4.158;2022-09-16T03:16:52;101394.00;;;19.34;45.58
17649;BME280;8943;51.110;-4.158;2022-09-16T03:19:30;101392.53;;;19.39;45.81
17649;BME280;8943;51.110;-4.158;2022-09-16T03:22:11;101399.44;;;19.42;45.88
17649;BME280;8943;51.110;-4.158;2022-09-16T03:24:48;101404.72;;;19.43;46.22
17649;BME280;8943;51.110;-4.158;2022-09-16T03:27:27;101406.72;;;19.41;46.96
17649;BME280;8943;51.110;-4.158;2022-09-16T03:30:02;101401.03;;;19.44;46.81
17649;BME280;8943;51.110;-4.158;2022-09-16T03:32:34;101408.75;;;19.39;46.75
17649;BME280;8943;51.110;-4.158;2022-09-16T03:35:09;101410.44;;;19.40;47.48
17649;BME280;8943;51.110;-4.158;2022-09-16T03:37:39;101409.03;;;19.36;47.45
17649;BME280;8943;51.110;-4.158;2022-09-16T03:40:09;101414.22;;;19.29;47.27
17649;BME280;8943;51.110;-4.158;2022-09-16T03:42:39;101412.50;;;19.28;46.73
17649;BME280;8943;51.110;-4.158;2022-09-16T03:45:13;101411.13;;;19.24;46.79
17649;BME280;8943;51.110;-4.158;2022-09-16T03:47:41;101413.44;;;19.19;46.70
17649;BME280;8943;51.110;-4.158;2022-09-16T03:50:12;101416.75;;;19.13;46.36
17649;BME280;8943;51.110;-4.158;2022-09-16T03:52:40;101422.28;;;19.12;46.43
17649;BME280;8943;51.110;-4.158;2022-09-16T03:55:08;101428.00;;;19.09;46.38
17649;BME280;8943;51.110;-4.158;2022-09-16T03:57:37;101430.84;;;19.07;46.13
17649;BME280;8943;51.110;-4.158;2022-09-16T04:00:07;101430.44;;;19.02;46.17
17649;BME280;8943;51.110;-4.158;2022-09-16T04:02:36;101426.03;;;19.01;46.04
17649;BME280;8943;51.110;-4.158;2022-09-16T04:05:05;101431.72;;;18.98;46.05
17649;BME280;8943;51.110;-4.158;2022-09-16T04:07:35;101431.31;;;18.93;46.13
17649;BME280;8943;51.110;-4.158;2022-09-16T04:10:03;101435.03;;;18.92;46.13
17649;BME280;8943;51.110;-4.158;2022-09-16T04:12:32;101433.63;;;18.88;46.28
17649;BME280;8943;51.110;-4.158;2022-09-16T04:15:00;101430.94;;;18.88;46.34
17649;BME280;8943;51.110;-4.158;2022-09-16T04:17:30;101435.63;;;18.86;46.68
17649;BME280;8943;51.110;-4.158;2022-09-16T04:19:58;101433.78;;;18.86;46.41
17649;BME280;8943;51.110;-4.158;2022-09-16T04:22:27;101442.03;;;18.85;46.73
17649;BME280;8943;51.110;-4.158;2022-09-16T04:24:57;101436.25;;;18.80;46.76
17649;BME280;8943;51.110;-4.158;2022-09-16T04:27:25;101440.47;;;18.82;47.07
17649;BME280;8943;51.110;-4.158;2022-09-16T04:29:53;101437.94;;;18.81;46.83
17649;BME280;8943;51.110;-4.158;2022-09-16T04:32:22;101434.38;;;18.80;46.95
17649;BME280;8943;51.110;-4.158;2022-09-16T04:34:50;101434.69;;;18.77;46.52
17649;BME280;8943;51.110;-4.158;2022-09-16T04:37:18;101442.63;;;18.78;46.45
17649;BME280;8943;51.110;-4.158;2022-09-16T04:39:46;101440.78;;;18.79;46.80
17649;BME280;8943;51.110;-4.158;2022-09-16T04:42:16;101443.34;;;18.81;46.46
17649;BME280;8943;51.110;-4.158;2022-09-16T04:44:44;101436.94;;;18.82;46.32
17649;BME280;8943;51.110;-4.158;2022-09-16T04:47:12;101444.03;;;18.83;46.39
17649;BME280;8943;51.110;-4.158;2022-09-16T04:49:40;101438.22;;;18.77;46.58
17649;BME280;8943;51.110;-4.158;2022-09-16T04:52:08;101444.59;;;18.86;46.25
17649;BME280;8943;51.110;-4.158;2022-09-16T04:54:37;101449.53;;;18.91;46.30
17649;BME280;8943;51.110;-4.158;2022-09-16T04:57:05;101451.25;;;18.92;46.31
17649;BME280;8943;51.110;-4.158;2022-09-16T04:59:34;101443.13;;;18.92;46.14
17649;BME280;8943;51.110;-4.158;2022-09-16T05:02:02;101445.41;;;18.96;46.21
17649;BME280;8943;51.110;-4.158;2022-09-16T05:04:31;101445.09;;;18.99;46.03
17649;BME280;8943;51.110;-4.158;2022-09-16T05:06:59;101451.97;;;18.94;45.89
17649;BME280;8943;51.110;-4.158;2022-09-16T05:09:27;101449.94;;;18.96;45.82
17649;BME280;8943;51.110;-4.158;2022-09-16T05:11:56;101451.63;;;18.97;45.62
17649;BME280;8943;51.110;-4.158;2022-09-16T05:14:24;101449.53;;;18.91;45.69
17649;BME280;8943;51.110;-4.158;2022-09-16T05:16:54;101455.16;;;18.80;45.52
17649;BME280;8943;51.110;-4.158;2022-09-16T05:19:23;101452.56;;;18.78;45.54
17649;BME280;8943;51.110;-4.158;2022-09-16T05:21:51;101445.22;;;18.70;45.33
17649;BME280;8943;51.110;-4.158;2022-09-16T05:24:19;101446.78;;;18.63;45.51
17649;BME280;8943;51.110;-4.158;2022-09-16T05:26:47;101449.06;;;18.58;45.55
17649;BME280;8943;51.110;-4.158;2022-09-16T05:29:16;101443.25;;;18.53;45.64
17649;BME280;8943;51.110;-4.158;2022-09-16T05:31:44;101454.38;;;18.50;45.60
17649;BME280;8943;51.110;-4.158;2022-09-16T05:34:16;101458.19;;;18.47;45.86
17649;BME280;8943;51.110;-4.158;2022-09-16T05:36:46;101446.13;;;18.42;45.68
17649;BME280;8943;51.110;-4.158;2022-09-16T05:39:16;101454.38;;;18.40;45.71
17649;BME280;8943;51.110;-4.158;2022-09-16T05:41:52;101471.53;;;18.39;45.84
17649;BME280;8943;51.110;-4.158;2022-09-16T05:44:21;101469.72;;;18.40;45.66
17649;BME280;8943;51.110;-4.158;2022-09-16T05:46:49;101462.06;;;18.35;45.70
17649;BME280;8943;51.110;-4.158;2022-09-16T05:49:19;101461.75;;;18.38;45.25
17649;BME280;8943;51.110;-4.158;2022-09-16T05:51:48;101470.56;;;18.40;45.24
17649;BME280;8943;51.110;-4.158;2022-09-16T05:54:17;101463.75;;;18.36;45.37
17649;BME280;8943;51.110;-4.158;2022-09-16T05:56:46;101467.88;;;18.40;45.12
17649;BME280;8943;51.110;-4.158;2022-09-16T05:59:15;101472.84;;;18.45;44.95
17649;BME280;8943;51.110;-4.158;2022-09-16T06:01:44;101473.13;;;18.42;45.05
17649;BME280;8943;51.110;-4.158;2022-09-16T06:04:13;101476.50;;;18.44;44.99
17649;BME280;8943;51.110;-4.158;2022-09-16T06:06:45;101477.25;;;18.46;45.32
17649;BME280;8943;51.110;-4.158;2022-09-16T06:09:15;101478.38;;;18.43;45.13
17649;BME280;8943;51.110;-4.158;2022-09-16T06:11:45;101478.25;;;18.45;45.17
17649;BME280;8943;51.110;-4.158;2022-09-16T06:14:14;101479.53;;;18.41;45.08
17649;BME280;8943;51.110;-4.158;2022-09-16T06:16:43;101481.81;;;18.36;45.08
17649;BME280;8943;51.110;-4.158;2022-09-16T06:19:13;101488.06;;;18.36;45.02
17649;BME280;8943;51.110;-4.158;2022-09-16T06:21:42;101483.94;;;18.32;44.95
17649;BME280;8943;51.110;-4.158;2022-09-16T06:24:29;101490.44;;;18.30;45.12
17649;BME280;8943;51.110;-4.158;2022-09-16T06:26:58;101501.56;;;18.26;45.22
17649;BME280;8943;51.110;-4.158;2022-09-16T06:29:26;101499.84;;;18.25;45.24
17649;BME280;8943;51.110;-4.158;2022-09-16T06:31:54;101498.72;;;18.18;45.28
17649;BME280;8943;51.110;-4.158;2022-09-16T06:34:23;101495.16;;;18.18;45.33
17649;BME280;8943;51.110;-4.158;2022-09-16T06:36:52;101494.16;;;18.19;45.57
17649;BME280;8943;51.110;-4.158;2022-09-16T06:39:20;101502.69;;;18.14;45.53
17649;BME280;8943;51.110;-4.158;2022-09-16T06:41:51;101505.94;;;18.18;45.62
17649;BME280;8943;51.110;-4.158;2022-09-16T06:44:20;101503.41;;;18.16;45.75
17649;BME280;8943;51.110;-4.158;2022-09-16T06:46:48;101510.34;;;18.19;46.05
17649;BME280;8943;51.110;-4.158;2022-09-16T06:49:16;101510.22;;;18.20;45.75
17649;BME280;8943;51.110;-4.158;2022-09-16T06:51:45;101508.50;;;18.19;46.01
17649;BME280;8943;51.110;-4.158;2022-09-16T06:54:13;101510.06;;;18.22;45.69
17649;BME280;8943;51.110;-4.158;2022-09-16T06:56:41;101510.91;;;18.22;45.50
17649;BME280;8943;51.110;-4.158;2022-09-16T06:59:11;101521.28;;;18.27;45.88
17649;BME280;8943;51.110;-4.158;2022-09-16T07:01:40;101517.31;;;18.31;45.49
17649;BME280;8943;51.110;-4.158;2022-09-16T07:04:10;101519.16;;;18.31;45.57
17649;BME280;8943;51.110;-4.158;2022-09-16T07:06:39;101517.84;;;18.35;45.16
17649;BME280;8943;51.110;-4.158;2022-09-16T07:09:27;101519.56;;;18.36;45.12
17649;BME280;8943;51.110;-4.158;2022-09-16T07:11:56;101519.28;;;18.39;44.85
17649;BME280;8943;51.110;-4.158;2022-09-16T07:14:27;101527.09;;;18.42;44.81
17649;BME280;8943;51.110;-4.158;2022-09-16T07:16:58;101527.78;;;18.44;44.51
17649;BME280;8943;51.110;-4.158;2022-09-16T07:19:27;101521.25;;;18.46;44.25
17649;BME280;8943;51.110;-4.158;2022-09-16T07:21:55;101534.31;;;18.51;44.11
17649;BME280;8943;51.110;-4.158;2022-09-16T07:24:24;101530.22;;;18.47;44.30
17649;BME280;8943;51.110;-4.158;2022-09-16T07:26:52;101535.88;;;18.53;44.00
17649;BME280;8943;51.110;-4.158;2022-09-16T07:29:22;101537.59;;;18.55;43.87
17649;BME280;8943;51.110;-4.158;2022-09-16T07:31:55;101535.88;;;18.53;43.90
17649;BME280;8943;51.110;-4.158;2022-09-16T07:34:24;101541.13;;;18.55;43.67
17649;BME280;8943;51.110;-4.158;2022-09-16T07:36:52;101548.94;;;18.58;43.62
17649;BME280;8943;51.110;-4.158;2022-09-16T07:39:20;101548.50;;;18.63;43.73
17649;BME280;8943;51.110;-4.158;2022-09-16T07:41:50;101548.94;;;18.58;43.44
17649;BME280;8943;51.110;-4.158;2022-09-16T07:44:19;101561.44;;;18.59;43.29
17649;BME280;8943;51.110;-4.158;2022-09-16T07:46:48;101553.78;;;18.64;43.09
17649;BME280;8943;51.110;-4.158;2022-09-16T07:49:18;101565.41;;;18.65;42.99
17649;BME280;8943;51.110;-4.158;2022-09-16T07:51:46;101572.50;;;18.66;42.87
17649;BME280;8943;51.110;-4.158;2022-09-16T07:54:17;101561.44;;;18.69;43.03
17649;BME280;8943;51.110;-4.158;2022-09-16T07:56:47;101571.28;;;18.70;43.32
17649;BME280;8943;51.110;-4.158;2022-09-16T07:59:17;101577.09;;;18.75;42.96
17649;BME280;8943;51.110;-4.158;2022-09-16T08:01:55;101575.81;;;18.79;42.58
17649;BME280;8943;51.110;-4.158;2022-09-16T08:04:25;101576.94;;;18.76;42.88
17649;BME280;8943;51.110;-4.158;2022-09-16T08:06:59;101580.19;;;18.80;42.82
17649;BME280;8943;51.110;-4.158;2022-09-16T08:09:27;101585.69;;;18.88;43.11
17649;BME280;8943;51.110;-4.158;2022-09-16T08:12:09;101586.13;;;18.93;43.28
17649;BME280;8943;51.110;-4.158;2022-09-16T08:14:38;101590.22;;;18.97;43.27
17649;BME280;8943;51.110;-4.158;2022-09-16T08:17:25;101597.06;;;19.01;43.01
17649;BME280;8943;51.110;-4.158;2022-09-16T08:20:02;101584.25;;;19.03;43.00
17649;BME280;8943;51.110;-4.158;2022-09-16T08:22:57;101596.78;;;19.04;43.19
17649;BME280;8943;51.110;-4.158;2022-09-16T08:25:28;101603.44;;;19.10;43.21
17649;BME280;8943;51.110;-4.158;2022-09-16T08:28:43;101601.81;;;19.17;43.04
17649;BME280;8943;51.110;-4.158;2022-09-16T08:31:35;101597.59;;;19.15;42.23
17649;BME280;8943;51.110;-4.158;2022-09-16T08:34:14;101606.25;;;19.18;41.76
17649;BME280;8943;51.110;-4.158;2022-09-16T08:36:50;101610.66;;;19.19;41.20
17649;BME280;8943;51.110;-4.158;2022-09-16T08:39:18;101610.94;;;19.16;41.47
17649;BME280;8943;51.110;-4.158;2022-09-16T08:42:17;101616.75;;;19.21;41.55
17649;BME280;8943;51.110;-4.158;2022-09-16T08:45:17;101619.59;;;19.20;42.08
17649;BME280;8943;51.110;-4.158;2022-09-16T08:48:02;101629.38;;;19.30;42.32
17649;BME280;8943;51.110;-4.158;2022-09-16T08:50:44;101621.28;;;19.30;41.76
17649;BME280;8943;51.110;-4.158;2022-09-16T08:53:41;101624.69;;;19.33;41.92
17649;BME280;8943;51.110;-4.158;2022-09-16T08:56:16;101621.41;;;19.39;41.96
17649;BME280;8943;51.110;-4.158;2022-09-16T08:58:48;101632.31;;;19.47;41.90
17649;BME280;8943;51.110;-4.158;2022-09-16T09:01:33;101618.38;;;19.42;41.62
17649;BME280;8943;51.110;-4.158;2022-09-16T09:04:04;101626.50;;;19.42;41.70
17649;BME280;8943;51.110;-4.158;2022-09-16T09:06:51;101627.50;;;19.41;41.57
17649;BME280;8943;51.110;-4.158;2022-09-16T09:09:51;101632.63;;;19.44;41.44
17649;BME280;8943;51.110;-4.158;2022-09-16T09:13:02;101633.31;;;19.46;41.29
17649;BME280;8943;51.110;-4.158;2022-09-16T09:16:27;101636.28;;;19.62;41.34
17649;BME280;8943;51.110;-4.158;2022-09-16T09:19:10;101635.47;;;19.79;41.00
17649;BME280;8943;51.110;-4.158;2022-09-16T09:22:03;101642.38;;;19.92;40.86
17649;BME280;8943;51.110;-4.158;2022-09-16T09:25:12;101643.56;;;20.07;40.99
17649;BME280;8943;51.110;-4.158;2022-09-16T09:28:16;101647.16;;;20.25;41.03
17649;BME280;8943;51.110;-4.158;2022-09-16T09:34:50;101655.69;;;20.48;40.59
17649;BME280;8943;51.110;-4.158;2022-09-16T09:37:32;101647.88;;;20.45;40.01
17649;BME280;8943;51.110;-4.158;2022-09-16T09:40:10;101642.53;;;20.36;40.05
17649;BME280;8943;51.110;-4.158;2022-09-16T09:42:44;101653.09;;;20.29;40.32
17649;BME280;8943;51.110;-4.158;2022-09-16T09:45:19;101658.38;;;20.30;40.75
17649;BME280;8943;51.110;-4.158;2022-09-16T09:48:18;101644.50;;;20.33;40.42
17649;BME280;8943;51.110;-4.158;2022-09-16T09:50:50;101646.66;;;20.30;40.29
17649;BME280;8943;51.110;-4.158;2022-09-16T09:53:27;101658.66;;;20.27;40.64
17649;BME280;8943;51.110;-4.158;2022-09-16T09:56:22;101667.63;;;20.28;40.69
17649;BME280;8943;51.110;-4.158;2022-09-16T09:59:02;101670.91;;;20.31;40.77
17649;BME280;8943;51.110;-4.158;2022-09-16T10:01:35;101668.25;;;20.40;40.71
17649;BME280;8943;51.110;-4.158;2022-09-16T10:04:23;101670.22;;;20.47;40.67
17649;BME280;8943;51.110;-4.158;2022-09-16T10:06:54;101665.03;;;20.54;40.50
17649;BME280;8943;51.110;-4.158;2022-09-16T10:09:37;101670.16;;;20.57;39.90
17649;BME280;8943;51.110;-4.158;2022-09-16T10:12:45;101671.19;;;20.56;40.00
17649;BME280;8943;51.110;-4.158;2022-09-16T10:15:20;101662.59;;;20.61;39.85
17649;BME280;8943;51.110;-4.158;2022-09-16T10:18:21;101668.00;;;20.61;40.20
17649;BME280;8943;51.110;-4.158;2022-09-16T10:21:03;101661.03;;;20.58;39.72
17649;BME280;8943;51.110;-4.158;2022-09-16T10:23:53;101661.66;;;20.52;39.86
17649;BME280;8943;51.110;-4.158;2022-09-16T10:26:39;101655.94;;;20.55;40.21
17649;BME280;8943;51.110;-4.158;2022-09-16T10:36:23;101648.97;;;20.70;39.71
17649;BME280;8943;51.110;-4.158;2022-09-16T10:38:56;101673.25;;;20.80;39.41
17649;BME280;8943;51.110;-4.158;2022-09-16T10:41:39;101659.72;;;20.80;38.66
17649;BME280;8943;51.110;-4.158;2022-09-16T10:44:14;101656.16;;;20.79;39.08
17649;BME280;8943;51.110;-4.158;2022-09-16T10:46:51;101652.25;;;20.82;39.58
17649;BME280;8943;51.110;-4.158;2022-09-16T10:49:25;101655.59;;;20.94;39.92
17649;BME280;8943;51.110;-4.158;2022-09-16T10:52:11;101671.75;;;21.03;39.40
17649;BME280;8943;51.110;-4.158;2022-09-16T10:54:43;101672.63;;;21.12;38.72
17649;BME280;8943;51.110;-4.158;2022-09-16T10:57:26;101653.16;;;21.08;38.62
17649;BME280;8943;51.110;-4.158;2022-09-16T11:00:09;101644.16;;;21.08;39.04
17649;BME280;8943;51.110;-4.158;2022-09-16T11:05:58;101669.53;;;20.99;38.28
17649;BME280;8943;51.110;-4.158;2022-09-16T11:08:42;101667.66;;;20.99;38.55
17649;BME280;8943;51.110;-4.158;2022-09-16T11:11:30;101663.47;;;21.05;38.79
17649;BME280;8943;51.110;-4.158;2022-09-16T11:14:10;101658.09;;;21.13;39.02
17649;BME280;8943;51.110;-4.158;2022-09-16T11:16:57;101673.34;;;21.14;39.38
17649;BME280;8943;51.110;-4.158;2022-09-16T11:19:33;101664.19;;;21.15;38.43
17649;BME280;8943;51.110;-4.158;2022-09-16T11:22:18;101658.88;;;21.05;38.72
17649;BME280;8943;51.110;-4.158;2022-09-16T11:25:14;101675.69;;;21.09;39.07
17649;BME280;8943;51.110;-4.158;2022-09-16T11:27:53;101677.06;;;21.13;39.33
17649;BME280;8943;51.110;-4.158;2022-09-16T11:30:32;101685.44;;;21.02;38.47
17649;BME280;8943;51.110;-4.158;2022-09-16T11:33:12;101675.41;;;20.94;38.27
17649;BME280;8943;51.110;-4.158;2022-09-16T11:36:04;101688.41;;;20.91;38.08
17649;BME280;8943;51.110;-4.158;2022-09-16T11:38:41;101666.91;;;20.89;37.88
17649;BME280;8943;51.110;-4.158;2022-09-16T11:41:20;101671.84;;;20.94;37.92
17649;BME280;8943;51.110;-4.158;2022-09-16T11:44:12;101670.03;;;21.02;37.65
17649;BME280;8943;51.110;-4.158;2022-09-16T11:46:52;101674.25;;;21.23;38.05
17649;BME280;8943;51.110;-4.158;2022-09-16T11:49:40;101669.81;;;21.40;37.67
17649;BME280;8943;51.110;-4.158;2022-09-16T11:55:32;101672.66;;;21.64;37.67
17649;BME280;8943;51.110;-4.158;2022-09-16T12:00:54;101689.97;;;21.63;38.02
17649;BME280;8943;51.110;-4.158;2022-09-16T12:03:41;101682.84;;;21.62;37.80
17649;BME280;8943;51.110;-4.158;2022-09-16T12:14:38;101664.44;;;21.48;38.19
17649;BME280;8943;51.110;-4.158;2022-09-16T12:17:16;101666.38;;;21.64;37.75
17649;BME280;8943;51.110;-4.158;2022-09-16T12:19:50;101687.25;;;21.71;37.65
17649;BME280;8943;51.110;-4.158;2022-09-16T12:22:23;101685.56;;;21.70;37.97
17649;BME280;8943;51.110;-4.158;2022-09-16T12:24:57;101690.63;;;21.65;38.17
17649;BME280;8943;51.110;-4.158;2022-09-16T12:27:42;101692.63;;;21.55;38.32
17649;BME280;8943;51.110;-4.158;2022-09-16T12:30:29;101677.47;;;21.44;38.26
17649;BME280;8943;51.110;-4.158;2022-09-16T12:33:04;101673.84;;;21.36;37.44
17649;BME280;8943;51.110;-4.158;2022-09-16T12:35:38;101689.75;;;21.30;37.14
17649;BME280;8943;51.110;-4.158;2022-09-16T12:38:15;101697.16;;;21.28;37.05
17649;BME280;8943;51.110;-4.158;2022-09-16T12:40:55;101687.88;;;21.31;37.45
17649;BME280;8943;51.110;-4.158;2022-09-16T12:44:02;101690.66;;;21.21;37.23
17649;BME280;8943;51.110;-4.158;2022-09-16T12:47:45;101697.94;;;21.21;37.72
17649;BME280;8943;51.110;-4.158;2022-09-16T12:50:42;101694.53;;;21.37;38.53
17649;BME280;8943;51.110;-4.158;2022-09-16T12:53:46;101688.88;;;21.56;38.26
17649;BME280;8943;51.110;-4.158;2022-09-16T12:59:33;101698.56;;;21.58;37.73
17649;BME280;8943;51.110;-4.158;2022-09-16T13:02:21;101695.44;;;21.79;37.92
17649;BME280;8943;51.110;-4.158;2022-09-16T13:05:11;101682.34;;;22.09;38.10
17649;BME280;8943;51.110;-4.158;2022-09-16T13:07:48;101681.91;;;22.30;37.47
17649;BME280;8943;51.110;-4.158;2022-09-16T13:10:23;101691.97;;;22.46;36.66
17649;BME280;8943;51.110;-4.158;2022-09-16T13:13:17;101691.44;;;22.34;37.13
17649;BME280;8943;51.110;-4.158;2022-09-16T13:18:38;101696.75;;;22.01;37.85
17649;BME280;8943;51.110;-4.158;2022-09-16T13:21:22;101693.63;;;21.88;38.05
17649;BME280;8943;51.110;-4.158;2022-09-16T13:24:00;101697.69;;;21.84;38.12
17649;BME280;8943;51.110;-4.158;2022-09-16T13:26:38;101691.75;;;21.89;38.23
17649;BME280;8943;51.110;-4.158;2022-09-16T13:29:39;101692.44;;;21.91;37.31
17649;BME280;8943;51.110;-4.158;2022-09-16T13:32:39;101687.19;;;21.89;37.77
17649;BME280;8943;51.110;-4.158;2022-09-16T13:35:33;101691.94;;;21.87;37.93
17649;BME280;8943;51.110;-4.158;2022-09-16T13:38:41;101691.59;;;21.90;38.48
17649;BME280;8943;51.110;-4.158;2022-09-16T13:41:11;101686.88;;;22.00;38.91
17649;BME280;8943;51.110;-4.158;2022-09-16T13:43:51;101683.19;;;22.09;38.10
17649;BME280;8943;51.110;-4.158;2022-09-16T14:22:31;101698.91;;;24.72;33.37
17649;BME280;8943;51.110;-4.158;2022-09-16T14:25:24;101684.34;;;25.03;32.68
17649;BME280;8943;51.110;-4.158;2022-09-16T14:28:16;101693.13;;;24.75;32.72
17649;BME280;8943;51.110;-4.158;2022-09-16T14:31:13;101679.22;;;24.85;33.11
17649;BME280;8943;51.110;-4.158;2022-09-16T14:33:46;101667.28;;;25.09;32.54
17649;BME280;8943;51.110;-4.158;2022-09-16T14:36:25;101668.72;;;24.97;33.18
17649;BME280;8943;51.110;-4.158;2022-09-16T14:39:20;101677.06;;;25.18;33.22
17649;BME280;8943;51.110;-4.158;2022-09-16T14:41:53;101679.19;;;25.46;32.28
17649;BME280;8943;51.110;-4.158;2022-09-16T14:44:52;101671.66;;;25.48;30.81
17649;BME280;8943;51.110;-4.158;2022-09-16T14:47:38;101678.69;;;25.57;30.53
17649;BME280;8943;51.110;-4.158;2022-09-16T14:50:25;101689.81;;;25.70;30.29